createdAt,value
2023-03-03T00:02:14.837Z,2.40
2023-03-03T00:04:47.501Z,2.30
2023-03-03T00:07:34.985Z,2.30
2023-03-03T00:10:18.827Z,2.20
2023-03-03T00:12:57.485Z,2.30
2023-03-03T00:15:40.186Z,2.50
2023-03-03T00:18:30.385Z,2.30
2023-03-03T00:21:41.321Z,2.30
2023-03-03T00:24:23.460Z,2.40
2023-03-03T00:26:59.093Z,2.50
2023-03-03T00:29:53.987Z,2.50
2023-03-03T00:32:51.823Z,2.60
2023-03-03T00:38:40.974Z,2.70
2023-03-03T00:41:26.972Z,2.70
2023-03-03T00:44:16.919Z,2.80
2023-03-03T00:47:00.300Z,2.80
2023-03-03T00:49:38.175Z,2.80
2023-03-03T00:52:21.467Z,3.00
2023-03-03T00:55:29.681Z,2.80
2023-03-03T00:58:15.105Z,2.80
2023-03-03T01:01:11.109Z,3.00
2023-03-03T01:04:03.765Z,2.80
2023-03-03T01:06:41.992Z,2.80
2023-03-03T01:09:18.382Z,2.60
2023-03-03T01:11:58.944Z,2.60
2023-03-03T01:14:46.083Z,2.60
2023-03-03T01:17:37.258Z,2.60
2023-03-03T01:20:12.725Z,2.70
2023-03-03T01:22:48.390Z,2.20
2023-03-03T01:25:43.767Z,2.30
2023-03-03T01:28:40.651Z,2.30
2023-03-03T01:31:34.054Z,2.40
2023-03-03T01:37:40.759Z,2.20
2023-03-03T01:40:37.347Z,2.40
2023-03-03T01:43:25.674Z,2.10
2023-03-03T01:50:22.284Z,2.10
2023-03-03T01:53:26.059Z,2.00
2023-03-03T01:56:01.939Z,2.00
2023-03-03T01:59:06.336Z,1.60
2023-03-03T02:01:54.466Z,1.90
2023-03-03T02:04:29.433Z,1.90
2023-03-03T02:07:12.770Z,2.00
2023-03-03T02:13:23.531Z,1.70
2023-03-03T02:16:28.999Z,1.70
2023-03-03T02:19:52.033Z,1.70
2023-03-03T02:22:39.249Z,1.70
2023-03-03T02:25:33.838Z,1.90
2023-03-03T02:28:30.192Z,1.80
2023-03-03T02:31:32.830Z,2.00
2023-03-03T02:34:05.475Z,2.00
2023-03-03T02:36:47.096Z,2.00
2023-03-03T02:39:32.814Z,1.80
2023-03-03T02:45:23.072Z,1.80
2023-03-03T02:47:59.050Z,1.40
2023-03-03T02:50:59.760Z,1.90
2023-03-03T02:53:33.499Z,2.00
2023-03-03T02:56:11.303Z,1.90
2023-03-03T02:58:47.249Z,2.00
2023-03-03T03:01:23.321Z,1.90
2023-03-03T03:04:14.660Z,1.80
2023-03-03T03:06:57.665Z,1.70
2023-03-03T03:09:32.852Z,1.60
2023-03-03T03:15:19.892Z,1.60
2023-03-03T03:18:05.052Z,1.50
2023-03-03T03:20:40.856Z,1.50
2023-03-03T03:23:15.937Z,1.50
2023-03-03T03:25:50.575Z,1.50
2023-03-03T03:28:40.633Z,1.40
2023-03-03T03:31:19.453Z,1.50
2023-03-03T03:37:02.363Z,1.30
2023-03-03T03:39:36.269Z,1.20
2023-03-03T03:42:11.697Z,1.20
2023-03-03T03:47:34.371Z,1.30
2023-03-03T03:50:28.119Z,1.20
2023-03-03T03:53:01.866Z,1.30
2023-03-03T03:55:36.849Z,1.20
2023-03-03T04:01:21.978Z,1.40
2023-03-03T04:04:00.126Z,1.20
2023-03-03T04:06:58.774Z,1.20
2023-03-03T04:09:48.467Z,1.10
2023-03-03T04:12:39.726Z,1.10
2023-03-03T04:15:19.196Z,1.10
2023-03-03T04:17:52.161Z,1.10
2023-03-03T04:20:28.556Z,1.00
2023-03-03T04:23:04.862Z,1.10
2023-03-03T04:35:22.236Z,1.10
2023-03-03T04:37:56.952Z,1.10
2023-03-03T04:43:27.139Z,1.30
2023-03-03T04:45:58.430Z,1.30
2023-03-03T04:48:41.738Z,1.40
2023-03-03T04:51:22.903Z,1.70
2023-03-03T04:54:01.904Z,1.90
2023-03-03T04:59:36.306Z,1.80
2023-03-03T05:02:12.693Z,1.90
2023-03-03T05:04:58.593Z,1.90
2023-03-03T05:07:51.198Z,1.90
2023-03-03T05:10:53.959Z,1.90
2023-03-03T05:13:35.856Z,2.00
2023-03-03T05:16:16.190Z,2.10
2023-03-03T05:18:50.689Z,2.20
2023-03-03T05:21:26.103Z,2.20
2023-03-03T05:23:59.031Z,2.20
2023-03-03T05:26:50.402Z,2.40
2023-03-03T05:29:43.288Z,2.30
2023-03-03T05:32:21.728Z,2.50
2023-03-03T05:34:58.966Z,2.40
2023-03-03T05:37:43.331Z,2.40
2023-03-03T05:40:22.556Z,2.50
2023-03-03T05:42:54.721Z,2.50
2023-03-03T05:49:01.244Z,2.50
2023-03-03T05:57:28.543Z,3.00
2023-03-03T06:00:03.929Z,2.30
2023-03-03T06:02:50.704Z,2.80
2023-03-03T06:05:26.978Z,2.70
2023-03-03T06:08:06.693Z,2.70
2023-03-03T06:10:43.019Z,2.70
2023-03-03T06:13:21.919Z,2.70
2023-03-03T06:16:16.076Z,2.60
2023-03-03T06:19:51.929Z,2.80
2023-03-03T06:22:36.398Z,2.70
2023-03-03T06:25:38.413Z,2.80
2023-03-03T06:28:24.775Z,2.80
2023-03-03T06:31:09.219Z,3.00
2023-03-03T06:34:02.019Z,2.90
2023-03-03T06:36:52.308Z,2.90
2023-03-03T06:39:49.580Z,2.90
2023-03-03T06:42:49.994Z,2.90
2023-03-03T06:45:25.868Z,3.00
2023-03-03T06:48:07.892Z,2.90
2023-03-03T06:51:40.569Z,3.00
2023-03-03T06:55:17.466Z,3.00
2023-03-03T06:58:09.098Z,3.10
2023-03-03T07:00:48.428Z,3.10
2023-03-03T07:30:17.806Z,3.50
2023-03-03T07:33:09.522Z,3.60
2023-03-03T07:39:04.566Z,3.70
2023-03-03T07:46:07.996Z,3.70
2023-03-03T07:48:46.803Z,3.80
2023-03-03T07:54:46.172Z,4.00
2023-03-03T07:57:45.028Z,4.10
2023-03-03T08:01:21.272Z,4.20
2023-03-03T08:04:34.816Z,4.30
2023-03-03T08:10:46.809Z,4.50
2023-03-03T08:13:52.777Z,4.50
2023-03-03T08:16:49.100Z,4.60
2023-03-03T08:19:28.473Z,4.60
2023-03-03T08:22:44.578Z,4.70
2023-03-03T08:25:17.119Z,4.80
2023-03-03T08:27:50.553Z,4.80
2023-03-03T08:30:39.731Z,4.90
2023-03-03T08:33:13.010Z,5.00
2023-03-03T08:35:47.412Z,5.20
2023-03-03T08:38:22.601Z,5.30
2023-03-03T08:40:53.977Z,5.30
2023-03-03T08:43:25.327Z,5.40
2023-03-03T08:46:00.517Z,5.50
2023-03-03T08:48:33.053Z,5.60
2023-03-03T08:51:06.186Z,5.60
2023-03-03T08:53:38.837Z,5.50
2023-03-03T08:56:09.313Z,5.60
2023-03-03T08:58:43.378Z,5.50
2023-03-03T09:01:17.607Z,5.30
2023-03-03T09:04:11.312Z,5.30
2023-03-03T09:06:47.970Z,5.20
2023-03-03T09:09:20.216Z,5.20
2023-03-03T09:11:50.828Z,5.30
2023-03-03T09:14:24.357Z,5.40
2023-03-03T09:16:58.388Z,5.40
2023-03-03T09:22:28.109Z,5.50
2023-03-03T09:25:02.130Z,5.40
2023-03-03T09:27:35.846Z,5.40
2023-03-03T09:30:30.685Z,5.40
2023-03-03T09:33:02.827Z,5.60
2023-03-03T09:35:42.317Z,5.60
2023-03-03T09:38:32.162Z,5.70
2023-03-03T09:41:50.065Z,5.90
2023-03-03T09:45:07.811Z,6.10
2023-03-03T09:47:53.802Z,6.40
2023-03-03T09:50:39.028Z,6.50
2023-03-03T09:53:36.400Z,6.80
2023-03-03T09:56:21.924Z,6.90
2023-03-03T09:59:28.074Z,7.00
2023-03-03T10:02:27.280Z,7.10
2023-03-03T10:05:30.252Z,7.10
2023-03-03T10:08:31.705Z,7.10
2023-03-03T10:11:20.323Z,7.20
2023-03-03T10:14:15.289Z,7.20
2023-03-03T10:17:15.856Z,7.30
2023-03-03T10:20:05.466Z,7.50
2023-03-03T10:22:50.933Z,7.50
2023-03-03T10:25:39.248Z,7.80
2023-03-03T10:29:05.659Z,8.00
2023-03-03T10:31:53.107Z,8.20
2023-03-03T10:34:49.742Z,8.20
2023-03-03T10:37:31.883Z,8.40
2023-03-03T10:40:17.591Z,8.50
2023-03-03T10:43:32.195Z,8.60
2023-03-03T10:46:46.415Z,9.00
2023-03-03T10:49:47.765Z,9.50
2023-03-03T10:52:34.644Z,9.80
2023-03-03T10:55:44.367Z,10.00
2023-03-03T10:58:52.018Z,10.40
2023-03-03T11:01:48.761Z,10.80
2023-03-03T11:05:21.990Z,11.20
2023-03-03T11:08:21.404Z,11.40
2023-03-03T12:10:52.265Z,15.90
2023-03-03T12:13:31.057Z,16.70
2023-03-03T12:16:12.100Z,16.90
2023-03-03T12:19:02.939Z,17.40
2023-03-03T12:21:48.689Z,17.60
2023-03-03T12:24:36.937Z,18.30
2023-03-03T12:27:23.052Z,18.60
2023-03-03T12:30:07.629Z,18.90
2023-03-03T12:33:13.511Z,19.50
2023-03-03T12:35:54.013Z,19.90
2023-03-03T12:38:39.056Z,20.00
2023-03-03T12:41:17.058Z,20.10
2023-03-03T12:43:59.394Z,20.70
2023-03-03T12:46:45.172Z,21.40
2023-03-03T12:49:14.168Z,21.20
2023-03-03T12:52:04.828Z,20.60
2023-03-03T12:54:55.370Z,20.90
2023-03-03T12:57:37.359Z,21.40
2023-03-03T13:00:31.940Z,22.10
2023-03-03T13:03:16.142Z,22.30
2023-03-03T13:06:00.176Z,22.20
2023-03-03T13:08:53.607Z,22.40
2023-03-03T13:11:41.401Z,22.80
2023-03-03T13:14:26.243Z,22.70
2023-03-03T13:17:16.648Z,22.90
2023-03-03T13:19:56.157Z,22.30
2023-03-03T13:22:45.185Z,22.10
2023-03-03T13:25:44.378Z,22.20
2023-03-03T13:28:24.527Z,22.20
2023-03-03T13:31:03.792Z,22.40
2023-03-03T13:33:36.990Z,22.70
2023-03-03T13:36:11.529Z,22.60
2023-03-03T13:38:48.472Z,22.90
2023-03-03T13:41:25.753Z,23.20
2023-03-03T13:44:04.950Z,22.90
2023-03-03T13:46:43.422Z,22.70
2023-03-03T13:49:56.430Z,22.70
2023-03-03T13:52:30.357Z,21.30
2023-03-03T13:55:22.544Z,21.00
2023-03-03T13:58:07.514Z,21.30
2023-03-03T14:00:54.621Z,21.40
2023-03-03T14:03:52.695Z,20.50
2023-03-03T14:06:25.163Z,20.00
2023-03-03T14:09:21.162Z,19.10
2023-03-03T14:12:00.821Z,18.40
2023-03-03T14:14:48.165Z,17.70
2023-03-03T14:17:31.044Z,17.30
2023-03-03T14:20:19.172Z,17.10
2023-03-03T14:22:54.750Z,17.60
2023-03-03T14:25:25.161Z,18.00
2023-03-03T14:28:05.810Z,18.40
2023-03-03T14:30:39.612Z,18.80
2023-03-03T14:33:22.022Z,19.30
2023-03-03T14:36:05.905Z,19.90
2023-03-03T14:38:45.869Z,19.60
2023-03-03T14:41:36.677Z,18.60
2023-03-03T14:44:29.444Z,17.30
2023-03-03T14:47:24.058Z,16.20
2023-03-03T14:49:52.589Z,15.30
2023-03-03T14:52:26.949Z,14.80
2023-03-03T14:54:56.661Z,14.30
2023-03-03T14:57:46.580Z,13.90
2023-03-03T15:00:36.385Z,13.60
2023-03-03T15:03:23.536Z,13.30
2023-03-03T15:05:52.603Z,13.10
2023-03-03T15:08:31.726Z,12.80
2023-03-03T15:11:15.682Z,12.50
2023-03-03T15:13:45.671Z,12.30
2023-03-03T15:16:18.956Z,12.20
2023-03-03T15:19:22.465Z,12.00
2023-03-03T15:21:59.370Z,12.00
2023-03-03T15:24:37.742Z,11.70
2023-03-03T15:27:19.379Z,11.60
2023-03-03T15:30:03.675Z,11.50
2023-03-03T15:32:43.220Z,11.40
2023-03-03T15:35:38.302Z,11.40
2023-03-03T15:38:26.058Z,11.10
2023-03-03T15:41:06.521Z,10.90
2023-03-03T15:43:43.117Z,10.80
2023-03-03T15:46:28.690Z,10.60
2023-03-03T15:49:19.519Z,10.50
2023-03-03T15:52:12.520Z,10.50
2023-03-03T15:54:53.503Z,10.50
2023-03-03T15:57:37.851Z,10.40
2023-03-03T16:00:39.092Z,10.30
2023-03-03T16:03:18.441Z,10.30
2023-03-03T16:06:06.733Z,10.20
2023-03-03T16:08:50.989Z,10.10
2023-03-03T16:11:29.770Z,10.00
2023-03-03T16:14:40.399Z,9.90
2023-03-03T16:17:27.934Z,9.80
2023-03-03T18:03:38.531Z,5.50
2023-03-03T18:06:46.111Z,5.30
2023-03-03T18:09:42.746Z,5.20
2023-03-03T18:12:21.600Z,5.10
2023-03-03T18:15:35.274Z,5.10
2023-03-03T18:18:32.548Z,5.00
2023-03-03T18:21:12.183Z,4.90
2023-03-03T18:23:43.499Z,4.90
2023-03-03T18:26:38.878Z,4.70
2023-03-03T18:29:28.420Z,4.70
2023-03-03T18:32:22.062Z,4.60
2023-03-03T18:35:30.062Z,4.50
2023-03-03T18:37:59.422Z,4.50
2023-03-03T18:40:40.157Z,4.40
2023-03-03T18:43:52.643Z,4.30
2023-03-03T18:46:50.499Z,4.30
2023-03-03T18:49:42.011Z,4.20
2023-03-03T18:52:23.254Z,4.40
2023-03-03T18:55:26.998Z,4.10
2023-03-03T18:58:41.982Z,4.30
2023-03-03T19:01:45.462Z,4.10
2023-03-03T19:04:55.637Z,4.00
2023-03-03T19:07:45.962Z,4.00
2023-03-03T19:11:07.028Z,3.90
2023-03-03T19:13:52.798Z,3.80
2023-03-03T19:16:41.014Z,3.70
2023-03-03T19:19:17.106Z,4.00
2023-03-03T19:21:52.760Z,3.70
2023-03-03T19:24:55.727Z,3.60
2023-03-03T19:27:39.045Z,3.60
2023-03-03T19:30:47.685Z,3.60
2023-03-03T19:33:58.434Z,3.50
2023-03-03T19:36:55.289Z,3.50
2023-03-03T19:40:01.191Z,3.60
2023-03-03T19:42:51.506Z,3.50
2023-03-03T19:45:45.384Z,3.30
2023-03-03T19:48:38.650Z,3.20
2023-03-03T19:51:28.055Z,3.20
2023-03-03T19:54:22.704Z,3.10
2023-03-03T19:57:36.832Z,3.10
2023-03-03T20:00:45.230Z,3.00
2023-03-03T20:04:09.368Z,3.00
2023-03-03T20:06:57.888Z,3.10
2023-03-03T20:09:44.653Z,3.00
2023-03-03T20:12:48.373Z,2.90
2023-03-03T20:15:35.074Z,2.90
2023-03-03T20:18:48.222Z,2.90
2023-03-03T20:21:45.393Z,2.80
2023-03-03T20:25:00.737Z,2.70
2023-03-03T20:28:19.260Z,2.70
2023-03-03T20:31:08.556Z,2.70
2023-03-03T20:33:54.963Z,2.60
2023-03-03T20:36:39.512Z,2.50
2023-03-03T20:39:17.586Z,2.60
2023-03-03T20:42:14.653Z,2.60
2023-03-03T20:45:22.388Z,2.60
2023-03-03T20:48:12.133Z,2.40
2023-03-03T20:50:58.691Z,2.50
2023-03-03T20:53:42.329Z,2.50
2023-03-03T20:56:26.057Z,2.50
2023-03-03T20:59:30.167Z,2.50
2023-03-03T21:02:19.806Z,2.70
2023-03-03T21:05:11.171Z,3.00
